createdAt,value
2019-03-24T00:00:30.085Z,92.08
2019-03-24T00:01:40.463Z,91.32
2019-03-24T00:02:30.036Z,91.22
2019-03-24T00:03:30.028Z,91.22
2019-03-24T00:04:30.055Z,91.70
2019-03-24T00:05:30.018Z,91.13
2019-03-24T00:06:30.014Z,91.51
2019-03-24T00:07:30.007Z,91.70
2019-03-24T00:08:30.023Z,91.80
2019-03-24T00:09:30.003Z,91.99
2019-03-24T00:10:29.984Z,92.27
2019-03-24T00:11:29.976Z,92.84
2019-03-24T00:12:29.971Z,92.80
2019-03-24T00:13:29.968Z,92.89
2019-03-24T00:14:29.960Z,93.08
2019-03-24T00:15:29.949Z,93.46
2019-03-24T00:16:29.946Z,94.03
2019-03-24T00:17:29.934Z,94.51
2019-03-24T00:18:29.933Z,93.65
2019-03-24T00:19:29.935Z,93.84
2019-03-24T00:20:29.928Z,94.32
2019-03-24T00:21:29.956Z,94.13
2019-03-24T00:22:29.908Z,94.79
2019-03-24T00:23:29.895Z,94.42
2019-03-24T00:24:38.609Z,94.79
2019-03-24T00:26:34.429Z,95.08
2019-03-24T00:27:34.394Z,94.89
2019-03-24T00:28:34.369Z,95.75
2019-03-24T00:29:34.393Z,95.46
2019-03-24T00:30:34.343Z,94.98
2019-03-24T00:31:34.327Z,94.22
2019-03-24T00:32:34.349Z,94.42
2019-03-24T00:33:34.309Z,94.98
2019-03-24T00:34:34.333Z,95.65
2019-03-24T00:35:34.327Z,95.27
2019-03-24T00:36:34.312Z,95.46
2019-03-24T00:37:34.326Z,95.56
2019-03-24T00:38:34.290Z,95.56
2019-03-24T00:39:34.279Z,96.03
2019-03-24T00:40:34.261Z,96.45
2019-03-24T00:41:34.291Z,96.74
2019-03-24T00:42:34.296Z,96.22
2019-03-24T00:43:34.252Z,95.84
2019-03-24T00:44:34.290Z,95.94
2019-03-24T00:45:36.947Z,96.26
2019-03-24T00:46:34.259Z,96.65
2019-03-24T00:47:34.231Z,97.03
2019-03-24T00:48:34.229Z,96.65
2019-03-24T00:49:34.226Z,97.03
2019-03-24T00:50:34.211Z,97.50
2019-03-24T00:51:34.180Z,98.07
2019-03-24T00:52:34.246Z,98.26
2019-03-24T00:53:34.181Z,98.55
2019-03-24T00:54:34.286Z,98.45
2019-03-24T00:55:34.182Z,98.55
2019-03-24T00:56:34.141Z,98.74
2019-03-24T00:57:34.172Z,99.21
2019-03-24T00:58:34.130Z,98.74
2019-03-24T00:59:42.828Z,98.93
2019-03-24T01:01:38.631Z,98.83
2019-03-24T01:02:38.604Z,98.55
2019-03-24T01:03:47.231Z,98.64
2019-03-24T01:05:32.026Z,99.40
2019-03-24T01:06:31.972Z,99.50
2019-03-24T01:07:31.964Z,99.50
2019-03-24T01:08:31.948Z,99.50
2019-03-24T01:09:31.971Z,99.78
2019-03-24T01:10:31.942Z,99.30
2019-03-24T01:11:31.928Z,99.30
2019-03-24T01:12:31.951Z,99.69
2019-03-24T01:13:31.915Z,99.78
2019-03-24T01:14:31.939Z,99.88
2019-03-24T01:15:31.934Z,99.99
2019-03-24T01:16:31.897Z,99.59
2019-03-24T01:17:31.896Z,99.54
2019-03-24T01:18:40.593Z,99.69
2019-03-24T01:20:26.549Z,99.99
2019-03-24T01:21:26.495Z,99.88
2019-03-24T01:22:26.499Z,99.30
2019-03-24T01:23:26.487Z,99.11
2019-03-24T01:24:26.478Z,98.55
2019-03-24T01:25:26.452Z,98.26
2019-03-24T01:26:26.481Z,98.17
2019-03-24T01:27:26.466Z,97.50
2019-03-24T01:28:26.423Z,97.12
2019-03-24T01:29:26.429Z,96.65
2019-03-24T01:30:26.420Z,96.17
2019-03-24T01:31:26.415Z,95.89
2019-03-24T01:32:26.409Z,96.08
2019-03-24T01:33:26.395Z,95.89
2019-03-24T01:34:26.396Z,96.93
2019-03-24T01:35:26.368Z,97.22
2019-03-24T01:36:26.376Z,97.50
2019-03-24T01:37:26.372Z,97.31
2019-03-24T01:38:26.378Z,97.64
2019-03-24T01:39:26.337Z,97.31
2019-03-24T01:40:26.381Z,98.12
2019-03-24T01:41:26.341Z,98.31
2019-03-24T01:42:26.311Z,99.44
2019-03-24T01:43:26.311Z,99.54
2019-03-24T01:44:26.311Z,99.64
2019-03-24T01:45:26.337Z,99.92
2019-03-24T01:46:26.295Z,99.99
2019-03-24T01:47:26.271Z,99.99
2019-03-24T01:48:26.280Z,99.99
2019-03-24T01:49:26.300Z,99.99
2019-03-24T01:50:26.251Z,99.73
2019-03-24T01:51:26.275Z,99.92
2019-03-24T01:52:26.256Z,99.54
2019-03-24T01:53:26.232Z,99.99
2019-03-24T01:54:26.218Z,99.99
2019-03-24T01:55:26.208Z,99.99
2019-03-24T01:56:26.203Z,99.99
2019-03-24T01:57:26.203Z,99.99
2019-03-24T01:58:26.194Z,99.99
2019-03-24T01:59:26.184Z,99.99
2019-03-24T02:00:26.188Z,99.99
2019-03-24T02:01:34.853Z,99.99
2019-03-24T02:03:39.545Z,99.99
2019-03-24T02:04:30.629Z,99.99
2019-03-24T02:05:30.627Z,99.99
2019-03-24T02:06:30.614Z,99.99
2019-03-24T02:07:30.600Z,99.99
2019-03-24T02:08:39.375Z,99.99
2019-03-24T02:10:35.320Z,99.99
2019-03-24T02:11:44.841Z,99.99
2019-03-24T02:13:39.575Z,99.99
2019-03-24T02:14:39.530Z,99.99
2019-03-24T02:15:39.499Z,99.99
2019-03-24T02:16:39.506Z,99.99
2019-03-24T02:17:39.527Z,99.99
2019-03-24T02:18:39.550Z,99.99
2019-03-24T02:19:39.480Z,99.99
2019-03-24T02:20:39.526Z,99.99
2019-03-24T02:21:39.442Z,99.99
2019-03-24T02:22:39.440Z,99.99
2019-03-24T02:23:39.444Z,99.99
2019-03-24T02:24:39.424Z,99.99
2019-03-24T02:25:39.442Z,99.99
2019-03-24T02:26:39.423Z,99.99
2019-03-24T02:27:39.401Z,99.99
2019-03-24T02:28:39.402Z,99.99
2019-03-24T02:29:39.381Z,99.99
2019-03-24T02:30:39.373Z,99.99
2019-03-24T02:31:39.359Z,99.99
2019-03-24T02:32:39.375Z,99.99
2019-03-24T02:33:39.347Z,99.99
2019-03-24T02:34:39.343Z,99.99
2019-03-24T02:35:39.348Z,99.99
2019-03-24T02:36:39.329Z,99.99
2019-03-24T02:37:39.329Z,99.99
2019-03-24T02:38:39.341Z,99.99
2019-03-24T02:39:39.318Z,99.99
2019-03-24T02:40:39.305Z,99.99
2019-03-24T02:41:39.320Z,99.99
2019-03-24T02:42:39.294Z,99.99
2019-03-24T02:43:39.260Z,99.99
2019-03-24T02:44:39.284Z,99.99
2019-03-24T02:45:39.240Z,99.99
2019-03-24T02:46:39.252Z,99.99
2019-03-24T02:47:39.240Z,99.99
2019-03-24T02:48:39.212Z,99.99
2019-03-24T02:49:47.919Z,99.99
2019-03-24T02:51:44.729Z,99.99
2019-03-24T02:52:44.673Z,99.99
2019-03-24T02:53:44.669Z,99.99
2019-03-24T02:54:44.683Z,99.99
2019-03-24T02:55:44.682Z,99.99
2019-03-24T02:56:44.655Z,99.99
2019-03-24T02:57:44.645Z,99.99
2019-03-24T03:14:17.267Z,99.99
2019-03-24T03:15:17.162Z,99.99
2019-03-24T03:16:17.124Z,99.99
2019-03-24T03:17:17.124Z,99.99
2019-03-24T03:18:17.090Z,99.99
2019-03-24T03:19:17.102Z,99.99
2019-03-24T03:20:17.067Z,99.99
2019-03-24T03:21:17.069Z,99.99
2019-03-24T03:22:17.049Z,99.99
2019-03-24T03:23:17.071Z,99.99
2019-03-24T03:24:17.197Z,99.99
2019-03-24T03:25:17.003Z,99.99
2019-03-24T03:26:16.995Z,99.99
2019-03-24T03:27:16.996Z,99.99
2019-03-24T03:28:16.996Z,99.99
2019-03-24T03:29:26.685Z,99.99
2019-03-24T03:31:32.439Z,99.99
2019-03-24T03:32:30.112Z,99.99
2019-03-24T03:34:25.952Z,99.99
2019-03-24T03:35:34.576Z,99.99
2019-03-24T03:37:40.370Z,99.99
2019-03-24T03:38:40.071Z,99.99
2019-03-24T03:40:34.835Z,99.99
2019-03-24T03:41:34.813Z,99.99
2019-03-24T03:42:34.798Z,99.99
2019-03-24T03:43:34.789Z,99.99
2019-03-24T03:44:34.764Z,99.99
2019-03-24T03:45:34.747Z,99.99
2019-03-24T03:46:34.754Z,99.99
2019-03-24T03:47:34.753Z,99.99
2019-03-24T03:48:34.738Z,99.99
2019-03-24T03:49:34.711Z,99.99
2019-03-24T03:50:34.719Z,99.99
2019-03-24T03:51:34.687Z,99.99
2019-03-24T03:52:34.691Z,99.99
2019-03-24T03:53:34.701Z,99.99
2019-03-24T03:54:34.668Z,99.99
2019-03-24T03:55:34.693Z,99.99
2019-03-24T03:56:34.663Z,99.99
2019-03-24T03:57:34.667Z,99.99
2019-03-24T03:58:34.621Z,99.99
2019-03-24T03:59:34.609Z,99.99
2019-03-24T04:00:34.602Z,99.99
2019-03-24T04:01:34.598Z,99.99
2019-03-24T04:02:34.596Z,99.99
2019-03-24T04:03:34.602Z,99.99
2019-03-24T04:04:34.552Z,99.99
2019-03-24T04:05:34.557Z,99.99
2019-03-24T04:06:34.581Z,99.99
2019-03-24T04:07:44.242Z,99.99
2019-03-24T04:09:40.062Z,99.99
2019-03-24T04:10:40.172Z,99.99
2019-03-24T04:11:39.984Z,99.99
2019-03-24T04:12:40.012Z,99.99
2019-03-24T04:13:39.994Z,99.99
2019-03-24T04:14:39.966Z,99.99
2019-03-24T04:15:39.972Z,99.99
2019-03-24T04:16:48.619Z,99.99
2019-03-24T04:18:44.453Z,99.99
2019-03-24T04:19:44.431Z,99.99
2019-03-24T04:20:44.402Z,99.99
2019-03-24T04:21:44.401Z,99.99
2019-03-24T04:22:44.355Z,99.99
2019-03-24T04:23:44.381Z,99.99
2019-03-24T04:24:44.392Z,99.99
2019-03-24T04:25:44.356Z,99.99
2019-03-24T04:26:44.336Z,99.99
2019-03-24T04:27:44.327Z,99.99
2019-03-24T04:28:44.325Z,99.99
2019-03-24T04:29:44.286Z,99.99
2019-03-24T04:30:44.332Z,99.99
2019-03-24T04:31:44.268Z,99.99
2019-03-24T04:32:44.284Z,99.99
2019-03-24T04:33:44.251Z,99.99
2019-03-24T04:34:44.268Z,99.99
2019-03-24T04:35:44.233Z,99.99
2019-03-24T04:36:52.966Z,99.99
2019-03-24T04:38:50.627Z,99.99
2019-03-24T04:39:50.586Z,99.99
2019-03-24T04:40:50.565Z,99.99
2019-03-24T04:41:50.631Z,99.99
2019-03-24T04:42:50.640Z,99.99
2019-03-24T04:43:50.561Z,99.99
2019-03-24T04:44:50.589Z,99.99
2019-03-24T04:45:50.607Z,99.99
2019-03-24T04:46:50.590Z,99.99
2019-03-24T04:47:50.616Z,99.99
2019-03-24T04:48:50.559Z,99.99
2019-03-24T04:49:50.482Z,99.99
2019-03-24T04:50:50.442Z,99.99
2019-03-24T04:51:50.531Z,99.99
2019-03-24T04:52:50.541Z,99.99
2019-03-24T04:53:50.437Z,99.99
2019-03-24T04:54:50.441Z,99.99
2019-03-24T04:55:50.413Z,99.99
2019-03-24T04:56:50.386Z,99.99
2019-03-24T04:57:50.384Z,99.99
2019-03-24T04:58:50.390Z,99.99
2019-03-24T04:59:50.366Z,99.99
2019-03-24T05:00:50.356Z,99.99
2019-03-24T05:01:50.352Z,99.99
2019-03-24T05:02:50.386Z,99.99
2019-03-24T05:03:50.368Z,99.99
2019-03-24T05:04:50.344Z,99.99
2019-03-24T05:05:50.305Z,99.99
2019-03-24T05:06:50.337Z,99.99
2019-03-24T05:07:50.293Z,99.99
2019-03-24T05:08:50.287Z,99.99
2019-03-24T05:09:50.267Z,99.99
2019-03-24T05:10:50.311Z,99.99
2019-03-24T05:11:50.246Z,99.99
2019-03-24T05:12:50.285Z,99.99
2019-03-24T05:13:50.229Z,99.99
2019-03-24T05:14:50.237Z,99.99
2019-03-24T05:15:50.219Z,99.99
2019-03-24T05:16:50.214Z,99.99
2019-03-24T05:17:50.200Z,99.99
2019-03-24T05:18:50.199Z,99.99
2019-03-24T05:19:50.198Z,99.99
2019-03-24T05:20:50.194Z,99.99
2019-03-24T05:21:50.164Z,99.99
2019-03-24T05:22:58.876Z,99.99
2019-03-24T05:24:54.652Z,99.99
2019-03-24T05:25:54.614Z,99.99
2019-03-24T05:27:59.107Z,99.99
2019-03-24T05:28:59.069Z,99.99
2019-03-24T05:29:59.055Z,99.99
2019-03-24T05:30:59.069Z,99.99
2019-03-24T05:31:59.064Z,99.99
2019-03-24T05:32:59.040Z,99.99
2019-03-24T05:33:59.062Z,99.99
2019-03-24T05:34:59.005Z,99.99
2019-03-24T05:35:58.994Z,99.99
2019-03-24T05:38:31.172Z,99.99
2019-03-24T05:39:39.850Z,99.99
2019-03-24T05:41:43.432Z,99.99
2019-03-24T05:42:35.632Z,99.99
2019-03-24T05:43:35.625Z,99.99
2019-03-24T05:44:35.614Z,99.99
2019-03-24T05:45:35.619Z,99.99
2019-03-24T05:46:35.599Z,99.99
2019-03-24T05:47:44.454Z,99.99
2019-03-24T05:49:49.052Z,99.99
2019-03-24T05:50:48.725Z,99.99
2019-03-24T05:52:44.498Z,99.99
2019-03-24T05:53:44.480Z,99.99
2019-03-24T05:54:44.474Z,99.99
2019-03-24T05:55:44.451Z,99.99
2019-03-24T05:56:44.455Z,99.99
2019-03-24T05:57:44.477Z,99.99
2019-03-24T05:58:44.474Z,99.99
2019-03-24T05:59:53.122Z,99.99
2019-03-24T06:01:57.964Z,99.99
2019-03-24T06:02:57.563Z,99.99
2019-03-24T06:04:53.377Z,99.99
2019-03-24T06:06:02.086Z,99.99
2019-03-24T06:07:55.837Z,99.99
2019-03-24T06:08:55.720Z,99.99
2019-03-24T06:10:52.436Z,99.99
2019-03-24T06:11:52.427Z,99.99
2019-03-24T06:12:52.470Z,99.99
2019-03-24T06:13:52.418Z,99.99
2019-03-24T06:14:52.917Z,99.99
2019-03-24T06:15:52.365Z,99.99
2019-03-24T06:16:52.381Z,99.99
2019-03-24T06:17:52.354Z,99.99
2019-03-24T06:18:52.362Z,99.99
2019-03-24T06:19:52.327Z,99.99
2019-03-24T06:20:52.322Z,99.99
2019-03-24T06:21:52.307Z,99.99
2019-03-24T06:22:52.312Z,99.99
2019-03-24T06:23:52.287Z,99.99
2019-03-24T06:24:52.342Z,99.99
2019-03-24T06:25:52.273Z,99.99
2019-03-24T06:26:52.257Z,99.99
2019-03-24T06:27:52.259Z,99.99
2019-03-24T06:28:52.260Z,99.99
2019-03-24T06:29:52.235Z,99.99
2019-03-24T06:30:52.236Z,99.99
2019-03-24T06:32:00.929Z,99.99
2019-03-24T06:33:56.736Z,99.99
2019-03-24T06:34:56.688Z,99.99
2019-03-24T06:35:56.709Z,99.99
2019-03-24T06:36:56.684Z,99.99
2019-03-24T06:37:57.108Z,99.99
2019-03-24T06:38:56.627Z,99.99
2019-03-24T06:39:56.626Z,99.99
2019-03-24T06:40:56.654Z,99.99
2019-03-24T06:41:56.605Z,99.99
2019-03-24T06:42:56.607Z,99.99
2019-03-24T06:43:56.606Z,99.99
2019-03-24T06:44:56.613Z,99.99
2019-03-24T06:45:56.592Z,99.99
2019-03-24T06:46:56.565Z,99.99
2019-03-24T06:47:58.138Z,99.99
2019-03-24T06:48:56.546Z,99.99
2019-03-24T06:49:56.545Z,99.99
2019-03-24T06:50:56.516Z,99.99
2019-03-24T06:51:56.563Z,99.99
2019-03-24T06:52:56.517Z,99.99
2019-03-24T06:53:56.624Z,99.99
2019-03-24T06:54:57.094Z,99.99
2019-03-24T06:55:56.492Z,99.99
2019-03-24T06:58:38.358Z,99.99
2019-03-24T06:59:37.673Z,99.99
2019-03-24T07:00:38.354Z,99.99
2019-03-24T07:03:42.650Z,99.99
2019-03-24T07:05:42.577Z,99.99
2019-03-24T07:08:59.956Z,99.99
2019-03-24T07:09:22.384Z,99.99
2019-03-24T07:10:22.549Z,99.99
2019-03-24T07:11:21.991Z,99.99
2019-03-24T07:12:22.506Z,99.99
2019-03-24T07:13:22.042Z,99.99
2019-03-24T07:16:34.937Z,99.99
2019-03-24T07:17:02.302Z,99.99
2019-03-24T07:18:08.084Z,99.99
2019-03-24T07:19:00.989Z,99.99
2019-03-24T07:20:00.452Z,99.99
2019-03-24T07:21:00.243Z,99.99
2019-03-24T07:22:00.281Z,99.99
2019-03-24T07:23:00.710Z,99.99
2019-03-24T07:24:00.618Z,99.99
2019-03-24T07:24:59.938Z,99.99
2019-03-24T07:25:59.915Z,99.99
2019-03-24T07:26:59.914Z,99.99
2019-03-24T07:27:59.910Z,99.99
2019-03-24T07:28:59.956Z,99.99
2019-03-24T07:29:59.943Z,99.99
2019-03-24T07:30:59.863Z,99.99
2019-03-24T07:31:59.964Z,99.99
2019-03-24T07:32:59.870Z,99.99
2019-03-24T07:33:59.853Z,99.99
2019-03-24T07:34:59.837Z,99.99
2019-03-24T07:35:59.830Z,99.99
2019-03-24T07:36:59.850Z,99.99
2019-03-24T07:37:59.904Z,99.99
2019-03-24T07:38:59.849Z,99.99
2019-03-24T07:39:59.849Z,99.99
2019-03-24T07:40:59.865Z,99.99
2019-03-24T07:41:59.806Z,99.99
2019-03-24T07:42:59.837Z,99.99
2019-03-24T07:43:59.801Z,99.99
2019-03-24T07:45:09.505Z,99.99
2019-03-24T07:47:03.774Z,99.99
2019-03-24T07:48:03.776Z,99.99
2019-03-24T07:50:08.203Z,99.99
2019-03-24T07:51:08.206Z,99.99
2019-03-24T07:52:08.338Z,99.99
2019-03-24T07:53:08.203Z,99.99
2019-03-24T07:54:08.187Z,99.99
2019-03-24T07:55:08.183Z,99.99
2019-03-24T07:56:08.159Z,99.99
2019-03-24T07:57:08.146Z,99.99
2019-03-24T07:58:08.169Z,99.99
2019-03-24T07:59:08.157Z,99.99
2019-03-24T08:00:08.153Z,99.99
2019-03-24T08:01:08.125Z,99.99
2019-03-24T08:02:08.118Z,99.99
2019-03-24T08:03:08.297Z,99.99
2019-03-24T08:04:08.087Z,99.99
2019-03-24T08:05:08.091Z,99.99
2019-03-24T08:06:08.124Z,99.99
2019-03-24T08:07:08.091Z,99.99
2019-03-24T08:08:08.098Z,99.99
2019-03-24T08:09:08.059Z,99.99
2019-03-24T08:10:08.384Z,99.99
2019-03-24T08:11:08.067Z,99.99
2019-03-24T08:12:08.029Z,99.99
2019-03-24T08:13:08.078Z,99.99
2019-03-24T08:14:08.058Z,99.99
2019-03-24T08:15:08.002Z,99.99
2019-03-24T08:16:08.003Z,99.99
2019-03-24T08:17:08.008Z,99.99
2019-03-24T08:18:08.032Z,99.99
2019-03-24T08:19:08.010Z,99.99
2019-03-24T08:20:07.992Z,99.99
2019-03-24T08:21:08.329Z,99.99
2019-03-24T08:22:07.949Z,99.99
2019-03-24T08:23:07.956Z,99.99
2019-03-24T08:24:07.962Z,99.99
2019-03-24T08:25:08.037Z,99.99
2019-03-24T08:26:07.973Z,99.99
2019-03-24T08:27:07.939Z,99.99
2019-03-24T08:28:07.923Z,99.99
2019-03-24T08:29:07.894Z,99.99
2019-03-24T08:30:07.901Z,99.99
2019-03-24T08:31:07.891Z,99.99
2019-03-24T08:32:07.877Z,99.99
2019-03-24T08:33:07.887Z,99.99
2019-03-24T08:34:07.893Z,99.99
2019-03-24T08:35:07.868Z,99.99
2019-03-24T08:36:07.843Z,99.99
2019-03-24T08:37:07.856Z,99.99
2019-03-24T08:38:07.857Z,99.99
2019-03-24T08:39:07.843Z,99.99
2019-03-24T08:40:07.899Z,99.60
2019-03-24T08:41:07.832Z,99.88
2019-03-24T08:42:07.813Z,99.88
2019-03-24T08:43:07.832Z,99.17
2019-03-24T08:44:07.806Z,98.60
2019-03-24T08:45:08.087Z,98.79
2019-03-24T08:46:07.905Z,98.36
2019-03-24T08:47:07.813Z,98.41
2019-03-24T08:48:07.887Z,98.32
2019-03-24T08:49:07.792Z,98.32
2019-03-24T08:50:07.772Z,98.36
2019-03-24T08:51:07.748Z,99.36
2019-03-24T08:52:07.732Z,99.46
2019-03-24T08:53:07.738Z,98.13
2019-03-24T08:54:07.731Z,98.79
2019-03-24T08:55:07.749Z,99.55
2019-03-24T08:56:07.726Z,98.88
2019-03-24T08:57:07.777Z,98.60
2019-03-24T08:58:07.696Z,98.13
2019-03-24T08:59:07.689Z,98.32
2019-03-24T09:00:07.675Z,98.60
2019-03-24T09:01:07.686Z,98.08
2019-03-24T09:02:07.778Z,98.22
2019-03-24T09:03:07.680Z,98.50
2019-03-24T09:04:07.679Z,98.79
2019-03-24T09:05:07.649Z,98.41
2019-03-24T09:06:07.642Z,98.32
2019-03-24T09:07:07.791Z,98.32
2019-03-24T09:08:07.626Z,98.22
2019-03-24T09:09:07.639Z,98.13
2019-03-24T09:10:07.633Z,97.65
2019-03-24T09:11:07.598Z,97.46
2019-03-24T09:12:07.593Z,97.27
2019-03-24T09:13:07.990Z,96.75
2019-03-24T09:14:07.604Z,96.27
2019-03-24T09:15:07.580Z,95.98
2019-03-24T09:16:07.571Z,96.55
2019-03-24T09:17:07.599Z,96.36
2019-03-24T09:18:07.690Z,96.27
2019-03-24T09:19:07.601Z,95.79
2019-03-24T09:20:07.543Z,96.36
2019-03-24T09:21:07.585Z,95.89
2019-03-24T09:22:07.569Z,95.12
2019-03-24T09:23:10.515Z,96.36
2019-03-24T09:24:07.519Z,95.41
2019-03-24T09:25:07.555Z,94.65
2019-03-24T09:26:07.544Z,94.65
2019-03-24T09:27:07.560Z,95.12
2019-03-24T09:28:09.200Z,95.32
2019-03-24T09:29:07.492Z,96.17
2019-03-24T09:30:07.527Z,95.51
2019-03-24T09:31:07.639Z,94.98
2019-03-24T09:32:07.476Z,94.22
2019-03-24T09:33:07.506Z,93.27
2019-03-24T09:34:07.488Z,93.60
2019-03-24T09:35:07.456Z,93.93
2019-03-24T09:36:07.487Z,93.46
2019-03-24T09:37:07.441Z,93.08
2019-03-24T09:38:07.532Z,93.37
2019-03-24T09:39:07.449Z,93.55
2019-03-24T09:40:07.446Z,92.98
2019-03-24T09:41:07.420Z,92.98
2019-03-24T09:42:07.451Z,92.60
2019-03-24T09:43:07.418Z,92.60
2019-03-24T09:44:07.452Z,92.41
2019-03-24T09:45:07.425Z,92.69
2019-03-24T09:46:08.149Z,92.89
2019-03-24T09:47:07.557Z,92.79
2019-03-24T09:48:07.429Z,91.94
2019-03-24T09:49:07.408Z,91.36
2019-03-24T09:50:07.409Z,92.22
2019-03-24T09:51:07.889Z,92.93
2019-03-24T09:52:07.352Z,92.65
2019-03-24T09:53:07.447Z,91.60
2019-03-24T09:54:07.364Z,91.41
2019-03-24T09:55:07.342Z,89.69
2019-03-24T09:56:07.380Z,89.60
2019-03-24T09:57:07.370Z,89.03
2019-03-24T09:58:07.339Z,89.22
2019-03-24T09:59:07.324Z,90.17
2019-03-24T10:00:07.349Z,88.93
2019-03-24T10:01:07.312Z,89.79
2019-03-24T10:02:07.312Z,88.93
2019-03-24T10:03:07.303Z,89.12
2019-03-24T10:04:07.425Z,88.74
2019-03-24T10:05:07.392Z,89.40
2019-03-24T10:06:07.278Z,89.12
2019-03-24T10:07:07.286Z,88.93
2019-03-24T10:08:07.291Z,89.22
2019-03-24T10:09:07.296Z,90.17
2019-03-24T10:10:07.290Z,90.17
2019-03-24T10:11:07.265Z,89.31
2019-03-24T10:12:07.359Z,89.22
2019-03-24T10:13:07.733Z,90.84
2019-03-24T10:14:07.588Z,89.36
2019-03-24T10:15:08.140Z,88.12
2019-03-24T10:16:07.481Z,87.93
2019-03-24T10:17:07.566Z,88.40
2019-03-24T10:18:07.433Z,88.02
2019-03-24T10:19:13.848Z,87.74
2019-03-24T10:20:07.315Z,87.74
2019-03-24T10:21:07.265Z,87.93
2019-03-24T10:22:07.232Z,87.74
2019-03-24T10:23:07.589Z,87.07
2019-03-24T10:24:08.582Z,86.88
2019-03-24T10:25:07.366Z,86.69
2019-03-24T10:26:08.179Z,86.49
2019-03-24T10:27:07.899Z,86.59
2019-03-24T10:28:07.924Z,86.30
2019-03-24T10:29:09.270Z,86.78
2019-03-24T10:30:07.643Z,85.93
2019-03-24T10:31:07.731Z,85.45
2019-03-24T10:32:08.961Z,85.83
2019-03-24T10:33:07.316Z,86.30
2019-03-24T10:34:08.141Z,87.11
2019-03-24T10:35:07.308Z,87.35
2019-03-24T10:36:07.356Z,87.07
2019-03-24T10:37:08.107Z,85.93
2019-03-24T10:38:07.851Z,86.25
2019-03-24T10:39:08.480Z,86.69
2019-03-24T10:40:07.523Z,85.39
2019-03-24T10:41:08.543Z,85.30
2019-03-24T10:42:07.466Z,85.68
2019-03-24T10:43:11.170Z,85.87
2019-03-24T10:44:09.351Z,85.49
2019-03-24T10:45:07.716Z,85.01
2019-03-24T10:46:07.516Z,85.77
2019-03-24T10:47:07.511Z,85.39
2019-03-24T10:48:07.644Z,84.92
2019-03-24T10:49:07.434Z,85.39
2019-03-24T10:50:08.166Z,84.82
2019-03-24T10:51:07.738Z,84.63
2019-03-24T10:52:07.358Z,85.06
2019-03-24T10:53:07.334Z,84.92
2019-03-24T10:54:07.343Z,85.45
2019-03-24T10:55:07.162Z,84.82
2019-03-24T10:56:07.837Z,84.16
2019-03-24T10:57:07.785Z,84.63
2019-03-24T10:58:07.736Z,83.87
2019-03-24T10:59:07.549Z,83.77
2019-03-24T11:00:07.341Z,84.25
2019-03-24T11:01:07.182Z,85.21
2019-03-24T11:02:07.829Z,85.30
2019-03-24T11:03:07.651Z,84.72
2019-03-24T11:04:08.229Z,84.63
2019-03-24T11:05:08.184Z,84.53
2019-03-24T11:06:07.782Z,84.44
2019-03-24T11:07:07.320Z,84.92
2019-03-24T11:08:07.180Z,85.77
2019-03-24T11:09:07.065Z,85.30
2019-03-24T11:10:07.185Z,84.63
2019-03-24T11:11:07.144Z,84.82
2019-03-24T11:12:07.086Z,84.67
2019-03-24T11:13:08.158Z,83.87
2019-03-24T11:14:08.029Z,83.34
2019-03-24T11:15:07.072Z,83.62
2019-03-24T11:16:07.035Z,84.39
2019-03-24T11:17:07.032Z,84.96
2019-03-24T11:18:07.039Z,84.67
2019-03-24T11:19:07.065Z,83.81
2019-03-24T11:20:07.030Z,83.34
2019-03-24T11:21:08.834Z,83.53
2019-03-24T11:22:06.953Z,82.19
2019-03-24T11:23:06.995Z,81.76
2019-03-24T11:24:07.001Z,81.27
2019-03-24T11:25:07.133Z,81.47
2019-03-24T11:26:06.960Z,81.52
2019-03-24T11:27:06.925Z,82.14
2019-03-24T11:28:07.078Z,81.81
2019-03-24T11:29:06.985Z,82.14
2019-03-24T11:30:06.934Z,81.76
2019-03-24T11:31:07.779Z,81.52
2019-03-24T11:32:06.981Z,81.24
2019-03-24T11:33:07.043Z,81.52
2019-03-24T11:34:06.970Z,81.56
2019-03-24T11:35:07.063Z,80.51
2019-03-24T11:36:07.011Z,80.70
2019-03-24T11:37:06.955Z,79.85
2019-03-24T11:38:07.226Z,80.61
2019-03-24T11:39:06.925Z,79.94
2019-03-24T11:40:06.990Z,79.08
2019-03-24T11:41:06.945Z,79.75
2019-03-24T11:42:06.931Z,80.13
2019-03-24T11:43:06.917Z,80.22
2019-03-24T11:44:06.911Z,80.90
2019-03-24T11:45:06.971Z,80.32
2019-03-24T11:46:07.042Z,79.85
2019-03-24T11:47:06.951Z,79.46
2019-03-24T11:48:07.021Z,79.94
2019-03-24T11:49:07.660Z,79.75
2019-03-24T11:50:07.437Z,80.32
2019-03-24T11:51:07.041Z,79.56
2019-03-24T11:52:06.894Z,79.56
2019-03-24T11:53:06.929Z,79.65
2019-03-24T11:54:07.057Z,79.27
2019-03-24T11:55:06.967Z,79.46
2019-03-24T11:56:06.919Z,79.75
2019-03-24T11:57:06.848Z,79.85
2019-03-24T11:58:06.978Z,78.99
2019-03-24T11:59:06.945Z,79.17
2019-03-24T12:00:06.825Z,79.85
2019-03-24T12:01:07.094Z,78.89
2019-03-24T12:02:06.896Z,79.08
2019-03-24T12:03:07.666Z,79.56
2019-03-24T12:04:06.808Z,79.17
2019-03-24T12:05:06.815Z,79.08
2019-03-24T12:06:14.562Z,79.17
2019-03-24T12:07:06.787Z,78.45
2019-03-24T12:08:06.784Z,79.12
2019-03-24T12:09:06.797Z,78.55
2019-03-24T12:10:06.799Z,77.87
2019-03-24T12:11:06.772Z,78.07
2019-03-24T12:12:06.774Z,78.26
2019-03-24T12:13:06.766Z,77.55
2019-03-24T12:14:06.790Z,78.03
2019-03-24T12:15:06.780Z,78.31
2019-03-24T12:16:06.797Z,78.22
2019-03-24T12:17:06.754Z,78.41
2019-03-24T12:18:06.772Z,79.02
2019-03-24T12:19:06.754Z,79.02
2019-03-24T12:20:06.770Z,79.98
2019-03-24T12:21:06.763Z,79.08
2019-03-24T12:22:06.734Z,78.60
2019-03-24T12:23:06.744Z,78.89
2019-03-24T12:24:06.745Z,78.60
2019-03-24T12:25:06.730Z,78.70
2019-03-24T12:26:06.723Z,78.41
2019-03-24T12:27:07.086Z,78.51
2019-03-24T12:28:06.740Z,78.79
2019-03-24T12:29:06.729Z,78.89
2019-03-24T12:30:06.712Z,78.99
2019-03-24T12:31:06.729Z,79.08
2019-03-24T12:32:06.798Z,79.65
2019-03-24T12:33:06.696Z,79.69
2019-03-24T12:34:06.716Z,78.93
2019-03-24T12:35:06.705Z,78.45
2019-03-24T12:36:06.707Z,78.45
2019-03-24T12:37:06.687Z,78.07
2019-03-24T12:38:06.683Z,78.64
2019-03-24T12:39:06.776Z,78.45
2019-03-24T12:40:06.690Z,78.45
2019-03-24T12:41:06.677Z,77.69
2019-03-24T12:42:06.677Z,78.45
2019-03-24T12:43:06.670Z,78.45
2019-03-24T12:44:06.678Z,78.64
2019-03-24T12:45:06.662Z,78.74
2019-03-24T12:46:06.677Z,78.93
2019-03-24T12:47:06.652Z,79.22
2019-03-24T12:48:06.681Z,79.31
2019-03-24T12:49:06.669Z,79.02
2019-03-24T12:50:09.192Z,79.22
2019-03-24T12:51:06.642Z,79.22
2019-03-24T12:52:06.675Z,78.83
2019-03-24T12:53:06.634Z,78.45
2019-03-24T12:54:06.627Z,78.74
2019-03-24T12:55:06.654Z,78.55
2019-03-24T12:56:06.621Z,78.07
2019-03-24T12:57:06.624Z,78.55
2019-03-24T12:58:06.636Z,78.83
2019-03-24T12:59:06.652Z,78.78
2019-03-24T13:00:06.631Z,77.92
2019-03-24T13:01:06.640Z,78.20
2019-03-24T13:02:06.608Z,78.20
2019-03-24T13:03:06.608Z,78.45
2019-03-24T13:04:06.599Z,77.92
2019-03-24T13:05:06.617Z,78.11
2019-03-24T13:06:06.598Z,78.68
2019-03-24T13:07:06.591Z,78.01
2019-03-24T13:08:06.587Z,78.20
2019-03-24T13:09:06.601Z,77.92
2019-03-24T13:10:06.592Z,77.82
2019-03-24T13:11:06.602Z,77.82
2019-03-24T13:12:06.617Z,78.11
2019-03-24T13:13:06.574Z,78.01
2019-03-24T13:14:06.591Z,78.01
2019-03-24T13:15:06.569Z,77.92
2019-03-24T13:16:06.606Z,78.01
2019-03-24T13:17:06.579Z,78.11
2019-03-24T13:18:06.568Z,76.86
2019-03-24T13:19:06.573Z,77.25
2019-03-24T13:20:06.571Z,77.06
2019-03-24T13:21:06.581Z,76.77
2019-03-24T13:22:06.544Z,77.53
2019-03-24T13:23:06.556Z,77.76
2019-03-24T13:24:06.616Z,77.38
2019-03-24T13:25:06.568Z,77.09
2019-03-24T13:26:06.574Z,77.00
2019-03-24T13:27:06.561Z,77.09
2019-03-24T13:28:06.580Z,76.81
2019-03-24T13:29:06.556Z,76.33
2019-03-24T13:30:06.567Z,76.14
2019-03-24T13:31:06.521Z,75.76
2019-03-24T13:32:06.532Z,75.66
2019-03-24T13:33:06.562Z,76.14
2019-03-24T13:34:06.525Z,76.04
2019-03-24T13:35:06.525Z,76.33
2019-03-24T13:36:06.553Z,76.90
2019-03-24T13:37:06.540Z,76.33
2019-03-24T13:38:06.542Z,76.81
2019-03-24T13:39:06.524Z,76.52
2019-03-24T13:40:06.548Z,76.42
2019-03-24T13:41:06.518Z,75.85
2019-03-24T13:42:06.516Z,75.76
2019-03-24T13:43:06.485Z,75.60
2019-03-24T13:44:06.473Z,75.51
2019-03-24T13:45:06.495Z,75.89
2019-03-24T13:46:06.474Z,75.70